createdAt,value
2019-04-14T00:00:22.975Z,3.20
2019-04-14T00:03:05.168Z,3.20
2019-04-14T00:05:35.467Z,3.20
2019-04-14T00:08:05.281Z,3.20
2019-04-14T00:10:33.789Z,3.20
2019-04-14T00:13:02.538Z,3.20
2019-04-14T00:15:38.841Z,3.20
2019-04-14T00:18:01.445Z,3.20
2019-04-14T00:20:29.902Z,3.20
2019-04-14T00:22:59.677Z,3.20
2019-04-14T00:25:28.432Z,3.20
2019-04-14T00:27:57.285Z,3.20
2019-04-14T00:30:27.229Z,3.20
2019-04-14T00:33:01.811Z,3.30
2019-04-14T00:35:47.208Z,3.30
2019-04-14T00:38:20.185Z,3.30
2019-04-14T00:41:05.327Z,3.30
2019-04-14T00:43:35.441Z,3.20
2019-04-14T00:46:14.718Z,3.10
2019-04-14T00:48:45.248Z,3.10
2019-04-14T00:51:13.759Z,3.00
2019-04-14T00:53:42.614Z,3.00
2019-04-14T00:56:11.082Z,3.00
2019-04-14T00:58:39.553Z,2.90
2019-04-14T01:01:09.060Z,2.90
2019-04-14T01:03:37.746Z,3.00
2019-04-14T01:06:07.535Z,2.90
2019-04-14T01:08:38.330Z,2.90
2019-04-14T01:11:07.396Z,2.90
2019-04-14T01:13:36.137Z,3.00
2019-04-14T01:16:11.548Z,3.10
2019-04-14T01:18:34.926Z,3.10
2019-04-14T01:21:04.503Z,3.10
2019-04-14T01:23:33.101Z,3.10
2019-04-14T01:26:02.803Z,3.10
2019-04-14T01:28:32.888Z,3.10
2019-04-14T01:31:01.491Z,3.10
2019-04-14T01:33:29.945Z,3.10
2019-04-14T01:35:59.630Z,3.10
2019-04-14T01:38:28.213Z,3.20
2019-04-14T01:40:57.690Z,3.20
2019-04-14T01:43:27.719Z,3.20
2019-04-14T01:46:05.205Z,3.20
2019-04-14T01:48:27.965Z,3.20
2019-04-14T01:50:58.450Z,3.20
2019-04-14T01:53:33.977Z,3.30
2019-04-14T01:56:04.089Z,3.30
2019-04-14T01:58:34.217Z,3.40
2019-04-14T02:01:07.004Z,3.40
2019-04-14T02:03:36.550Z,3.40
2019-04-14T02:06:05.288Z,3.40
2019-04-14T02:08:35.067Z,3.40
2019-04-14T02:11:05.117Z,3.40
2019-04-14T02:13:33.790Z,3.40
2019-04-14T02:16:16.475Z,3.40
2019-04-14T02:18:32.443Z,3.40
2019-04-14T02:21:02.039Z,3.50
2019-04-14T02:23:30.708Z,3.50
2019-04-14T02:26:00.097Z,3.50
2019-04-14T02:28:28.958Z,3.50
2019-04-14T02:31:10.320Z,3.50
2019-04-14T02:33:50.562Z,3.60
2019-04-14T02:36:32.269Z,3.50
2019-04-14T02:41:29.681Z,3.50
2019-04-14T02:43:58.059Z,3.50
2019-04-14T02:46:32.201Z,3.50
2019-04-14T02:51:26.919Z,3.40
2019-04-14T02:53:57.695Z,3.30
2019-04-14T03:04:09.039Z,3.30
2019-04-14T03:06:29.249Z,3.30
2019-04-14T03:11:43.988Z,3.20
2019-04-14T03:13:58.585Z,3.20
2019-04-14T03:19:06.741Z,3.30
2019-04-14T03:21:40.327Z,3.40
2019-04-14T03:24:29.253Z,3.40
2019-04-14T03:29:43.232Z,3.50
2019-04-14T03:32:31.822Z,3.50
2019-04-14T03:34:42.216Z,3.50
2019-04-14T03:39:49.621Z,3.30
2019-04-14T03:42:24.949Z,3.30
2019-04-14T03:44:48.940Z,3.40
2019-04-14T03:49:45.528Z,3.30
2019-04-14T03:52:18.999Z,3.30
2019-04-14T03:54:40.429Z,3.30
2019-04-14T03:56:53.643Z,3.30
2019-04-14T03:59:23.848Z,3.20
2019-04-14T04:01:52.540Z,3.20
2019-04-14T04:04:22.589Z,3.10
2019-04-14T04:06:51.329Z,3.10
2019-04-14T04:09:21.503Z,3.10
2019-04-14T04:11:49.986Z,3.20
2019-04-14T04:14:18.785Z,3.20
2019-04-14T04:16:52.861Z,3.30
2019-04-14T04:19:40.921Z,3.30
2019-04-14T04:22:30.322Z,3.40
2019-04-14T04:25:07.323Z,3.40
2019-04-14T04:27:40.323Z,3.40
2019-04-14T04:30:14.441Z,3.40
2019-04-14T04:32:57.873Z,3.40
2019-04-14T04:35:31.079Z,3.40
2019-04-14T04:38:18.091Z,3.40
2019-04-14T04:40:46.707Z,3.40
2019-04-14T04:43:15.182Z,3.40
2019-04-14T04:45:43.651Z,3.40
2019-04-14T04:48:13.153Z,3.50
2019-04-14T04:50:43.060Z,3.40
2019-04-14T04:53:11.656Z,3.40
2019-04-14T04:55:40.146Z,3.40
2019-04-14T04:58:09.973Z,3.40
2019-04-14T05:00:39.469Z,3.40
2019-04-14T05:03:08.100Z,3.40
2019-04-14T05:06:02.691Z,3.30
2019-04-14T05:08:32.587Z,3.30
2019-04-14T05:11:14.696Z,3.20
2019-04-14T05:13:44.789Z,3.20
2019-04-14T05:16:13.262Z,3.30
2019-04-14T05:18:41.905Z,3.30
2019-04-14T05:21:10.695Z,3.30
2019-04-14T05:23:39.176Z,3.20
2019-04-14T05:26:08.916Z,3.20
2019-04-14T05:28:37.994Z,3.10
2019-04-14T05:31:07.518Z,3.20
2019-04-14T05:33:36.422Z,3.20
2019-04-14T05:36:04.862Z,3.20
2019-04-14T05:38:34.400Z,3.30
2019-04-14T05:41:04.654Z,3.20
2019-04-14T05:43:42.898Z,3.20
2019-04-14T05:46:04.000Z,3.20
2019-04-14T05:48:33.641Z,3.20
2019-04-14T05:51:02.515Z,3.30
2019-04-14T05:53:31.061Z,3.40
2019-04-14T05:55:59.515Z,3.40
2019-04-14T05:58:27.972Z,3.40
2019-04-14T06:00:58.017Z,3.50
2019-04-14T06:03:27.680Z,3.40
2019-04-14T06:05:56.473Z,3.40
2019-04-14T06:08:25.066Z,3.30
2019-04-14T06:10:53.543Z,3.40
2019-04-14T06:13:22.011Z,3.40
2019-04-14T06:15:50.455Z,3.30
2019-04-14T06:18:18.919Z,3.40
2019-04-14T06:20:47.362Z,3.40
2019-04-14T06:23:16.139Z,3.50
2019-04-14T06:25:44.623Z,3.50
2019-04-14T06:28:13.115Z,3.70
2019-04-14T06:30:48.877Z,3.70
2019-04-14T06:33:18.980Z,3.80
2019-04-14T06:35:49.088Z,3.70
2019-04-14T06:38:28.450Z,3.70
2019-04-14T06:41:01.563Z,3.70
2019-04-14T06:43:30.004Z,3.90
2019-04-14T06:45:59.206Z,4.00
2019-04-14T06:48:27.659Z,4.20
2019-04-14T06:50:56.107Z,4.60
2019-04-14T06:53:24.565Z,4.90
2019-04-14T06:55:55.075Z,5.00
2019-04-14T06:58:23.723Z,5.20
2019-04-14T07:00:52.154Z,5.40
2019-04-14T07:03:20.965Z,5.50
2019-04-14T07:05:49.400Z,5.60
2019-04-14T07:08:17.864Z,5.60
2019-04-14T07:10:46.352Z,5.60
2019-04-14T07:13:14.808Z,5.50
2019-04-14T07:15:43.270Z,5.60
2019-04-14T07:18:12.154Z,5.60
2019-04-14T07:20:41.231Z,5.70
2019-04-14T07:23:09.701Z,5.70
2019-04-14T07:25:38.132Z,5.60
2019-04-14T07:28:06.587Z,5.60
2019-04-14T07:30:36.694Z,5.60
2019-04-14T07:33:09.463Z,5.70
2019-04-14T07:35:51.738Z,5.80
2019-04-14T07:38:28.241Z,5.80
2019-04-14T07:41:13.320Z,5.80
2019-04-14T07:43:49.189Z,5.70
2019-04-14T07:46:28.192Z,5.80
2019-04-14T07:49:07.358Z,5.90
2019-04-14T07:51:40.262Z,6.00
2019-04-14T07:54:10.363Z,5.90
2019-04-14T07:56:52.221Z,5.80
2019-04-14T07:59:22.769Z,5.80
2019-04-14T08:01:52.868Z,5.80
2019-04-14T08:04:22.953Z,5.60
2019-04-14T08:06:53.181Z,5.60
2019-04-14T08:09:21.627Z,5.60
2019-04-14T08:11:50.080Z,5.50
2019-04-14T08:14:21.638Z,5.70
2019-04-14T08:16:50.089Z,6.10
2019-04-14T08:19:18.597Z,6.60
2019-04-14T08:21:47.117Z,6.90
2019-04-14T08:24:15.551Z,7.20
2019-04-14T08:26:43.999Z,7.20
2019-04-14T08:29:12.457Z,7.10
2019-04-14T08:31:40.882Z,6.90
2019-04-14T08:34:09.641Z,6.70
2019-04-14T08:36:38.080Z,6.70
2019-04-14T08:39:09.921Z,6.60
2019-04-14T08:41:40.010Z,6.80
2019-04-14T08:44:10.122Z,6.90
2019-04-14T08:46:42.999Z,7.20
2019-04-14T08:49:15.874Z,7.40
2019-04-14T08:51:46.226Z,7.50
2019-04-14T08:54:16.645Z,7.50
2019-04-14T08:56:58.648Z,7.20
2019-04-14T08:59:38.068Z,7.10
2019-04-14T09:02:13.833Z,7.50
2019-04-14T09:04:46.850Z,8.00
2019-04-14T09:07:16.921Z,8.50
2019-04-14T09:09:47.353Z,9.00
2019-04-14T09:12:17.461Z,9.30
2019-04-14T09:14:56.302Z,9.00
2019-04-14T09:17:16.068Z,8.90
2019-04-14T09:19:44.530Z,8.80
2019-04-14T09:22:12.975Z,8.80
2019-04-14T09:24:41.495Z,9.00
2019-04-14T09:27:10.291Z,9.30
2019-04-14T09:29:38.788Z,9.60
2019-04-14T09:32:08.879Z,9.80
2019-04-14T09:34:37.325Z,10.00
2019-04-14T09:37:05.770Z,10.10
2019-04-14T09:39:34.225Z,10.30
2019-04-14T09:42:02.921Z,10.40
2019-04-14T09:44:31.365Z,10.30
2019-04-14T09:46:59.826Z,10.00
2019-04-14T09:49:28.275Z,10.10
2019-04-14T09:51:56.704Z,10.20
2019-04-14T09:54:25.151Z,10.20
2019-04-14T09:56:53.599Z,10.60
2019-04-14T09:59:22.073Z,10.80
2019-04-14T10:01:50.509Z,10.90
2019-04-14T10:04:18.934Z,11.10
2019-04-14T10:06:47.367Z,10.90
2019-04-14T10:09:15.889Z,11.00
2019-04-14T10:11:49.018Z,11.30
2019-04-14T10:14:14.657Z,11.60
2019-04-14T10:16:43.146Z,11.80
2019-04-14T10:19:11.607Z,12.20
2019-04-14T10:21:40.628Z,12.70
2019-04-14T10:24:09.068Z,12.80
2019-04-14T10:26:37.524Z,13.00
2019-04-14T10:29:06.009Z,12.90
2019-04-14T10:31:34.529Z,13.00
2019-04-14T10:34:03.011Z,12.90
2019-04-14T10:36:33.361Z,12.80
2019-04-14T10:39:01.793Z,12.60
2019-04-14T10:41:30.624Z,12.90
2019-04-14T10:43:59.122Z,13.30
2019-04-14T10:46:27.560Z,13.60
2019-04-14T10:48:56.001Z,13.20
2019-04-14T10:51:30.724Z,12.70
2019-04-14T10:53:54.612Z,12.50
2019-04-14T10:56:23.066Z,12.60
2019-04-14T10:58:51.510Z,12.90
2019-04-14T11:01:19.960Z,12.90
2019-04-14T11:03:48.407Z,13.40
2019-04-14T11:06:24.533Z,13.90
2019-04-14T11:08:52.965Z,14.00
2019-04-14T11:11:21.413Z,13.90
2019-04-14T11:13:49.857Z,14.00
2019-04-14T11:16:18.410Z,13.80
2019-04-14T11:18:46.931Z,13.60
2019-04-14T11:21:15.430Z,14.20
2019-04-14T11:23:43.840Z,15.00
2019-04-14T11:26:12.664Z,15.50
2019-04-14T11:28:41.101Z,15.70
2019-04-14T11:31:09.985Z,15.40
2019-04-14T11:33:55.950Z,15.40
2019-04-14T11:36:28.512Z,15.50
2019-04-14T11:39:01.440Z,15.40
2019-04-14T11:41:29.891Z,15.30
2019-04-14T11:43:58.345Z,15.30
2019-04-14T11:46:26.817Z,15.10
2019-04-14T11:48:55.248Z,15.20
2019-04-14T11:51:23.697Z,15.30
2019-04-14T11:53:52.117Z,15.30
2019-04-14T11:56:20.588Z,15.40
2019-04-14T11:58:49.074Z,15.10
2019-04-14T12:01:19.265Z,14.90
2019-04-14T12:03:52.645Z,14.60
2019-04-14T12:06:22.732Z,14.60
2019-04-14T12:08:56.167Z,14.80
2019-04-14T12:11:24.617Z,14.80
2019-04-14T12:13:53.072Z,14.40
2019-04-14T12:16:21.645Z,13.60
2019-04-14T12:18:50.068Z,12.90
2019-04-14T12:21:18.551Z,12.50
2019-04-14T12:23:50.856Z,11.90
2019-04-14T12:26:19.312Z,12.00
2019-04-14T12:28:47.787Z,12.00
2019-04-14T12:31:17.450Z,12.10
2019-04-14T12:33:47.811Z,12.90
2019-04-14T12:36:16.333Z,13.10
2019-04-14T12:38:45.171Z,12.90
2019-04-14T12:41:15.644Z,12.70
2019-04-14T12:43:45.716Z,12.10
2019-04-14T12:46:18.515Z,11.50
2019-04-14T12:48:48.647Z,11.20
2019-04-14T12:51:20.501Z,11.10
2019-04-14T12:53:48.885Z,11.00
2019-04-14T12:56:19.042Z,10.70
2019-04-14T12:59:00.974Z,10.60
2019-04-14T13:01:31.150Z,11.10
2019-04-14T13:03:59.673Z,11.50
2019-04-14T13:06:28.128Z,12.00
2019-04-14T13:08:57.043Z,12.60
2019-04-14T13:11:25.840Z,12.80
2019-04-14T13:13:54.293Z,12.90
2019-04-14T13:16:22.749Z,12.70
2019-04-14T13:18:51.690Z,12.50
2019-04-14T13:21:20.139Z,12.50
2019-04-14T13:23:48.634Z,12.50
2019-04-14T13:26:17.156Z,12.50
2019-04-14T13:28:45.619Z,12.80
2019-04-14T13:31:14.046Z,13.20
2019-04-14T13:33:42.490Z,13.90
2019-04-14T13:36:10.948Z,14.20
2019-04-14T13:38:39.383Z,14.20
2019-04-14T13:41:07.828Z,14.10
2019-04-14T13:43:36.300Z,13.80
2019-04-14T13:46:04.839Z,13.60
2019-04-14T13:48:33.276Z,13.60
2019-04-14T13:51:01.734Z,14.20
2019-04-14T13:53:30.172Z,16.30
2019-04-14T13:55:58.604Z,17.90
2019-04-14T13:58:27.450Z,18.30
2019-04-14T14:00:55.934Z,17.60
2019-04-14T14:03:24.439Z,16.50
2019-04-14T14:05:53.197Z,15.80
2019-04-14T14:08:21.762Z,15.00
2019-04-14T14:10:51.883Z,14.00
2019-04-14T14:13:22.025Z,13.50
2019-04-14T14:16:10.165Z,13.30
2019-04-14T14:18:45.973Z,13.30
2019-04-14T14:21:16.434Z,13.60
2019-04-14T14:23:58.533Z,13.90
2019-04-14T14:26:28.607Z,14.00
2019-04-14T14:28:57.064Z,14.20
2019-04-14T14:31:25.513Z,14.50
2019-04-14T14:33:53.952Z,15.80
2019-04-14T14:36:22.397Z,16.80
2019-04-14T14:38:50.900Z,17.10
2019-04-14T14:41:19.325Z,16.90
2019-04-14T14:43:47.800Z,16.30
2019-04-14T14:46:36.852Z,15.60
2019-04-14T14:49:09.027Z,15.00
2019-04-14T14:51:51.053Z,14.40
2019-04-14T14:54:19.508Z,14.20
2019-04-14T14:56:47.967Z,13.60
2019-04-14T14:59:16.410Z,13.20
2019-04-14T15:01:44.933Z,13.10
2019-04-14T15:04:13.401Z,12.90
2019-04-14T15:06:41.822Z,12.90
2019-04-14T15:09:11.319Z,12.90
2019-04-14T15:11:39.736Z,13.20
2019-04-14T15:14:08.197Z,14.60
2019-04-14T15:16:36.728Z,16.80
2019-04-14T15:19:05.166Z,17.50
2019-04-14T15:21:33.600Z,18.30
2019-04-14T15:24:02.085Z,19.30
2019-04-14T15:26:30.613Z,20.50
2019-04-14T15:28:59.105Z,21.80
2019-04-14T15:31:27.617Z,22.70
2019-04-14T15:33:56.053Z,22.60
2019-04-14T15:36:24.992Z,22.70
2019-04-14T15:38:53.455Z,21.70
2019-04-14T15:41:21.876Z,20.50
2019-04-14T15:43:50.364Z,18.90
2019-04-14T15:46:19.230Z,17.50
2019-04-14T15:48:47.780Z,16.40
2019-04-14T15:51:16.221Z,15.60
2019-04-14T15:53:44.688Z,15.30
2019-04-14T15:56:14.778Z,15.20
2019-04-14T15:58:50.580Z,15.00
2019-04-14T16:01:26.324Z,15.30
2019-04-14T16:04:12.616Z,16.30
2019-04-14T16:06:45.722Z,17.10
2019-04-14T16:09:21.931Z,17.80
2019-04-14T16:12:04.225Z,18.70
2019-04-14T16:14:34.469Z,19.20
2019-04-14T16:17:19.516Z,19.80
2019-04-14T16:20:04.675Z,20.50
2019-04-14T16:22:33.155Z,21.70
2019-04-14T16:25:01.674Z,22.90
2019-04-14T16:27:37.644Z,23.40
2019-04-14T16:30:24.457Z,23.20
2019-04-14T16:33:03.155Z,22.70
2019-04-14T16:35:33.264Z,20.90
2019-04-14T16:38:01.746Z,18.90
2019-04-14T16:40:30.284Z,17.80
2019-04-14T16:42:58.755Z,17.30
2019-04-14T16:45:27.196Z,16.50
2019-04-14T16:47:55.984Z,16.40
2019-04-14T16:50:24.501Z,15.90
2019-04-14T16:52:54.627Z,15.20
2019-04-14T16:55:40.959Z,14.60
2019-04-14T16:58:11.042Z,14.10
2019-04-14T17:00:41.125Z,13.60
2019-04-14T17:03:09.549Z,13.30
2019-04-14T17:05:39.211Z,13.00
2019-04-14T17:08:08.381Z,12.80
2019-04-14T17:10:36.823Z,12.80
2019-04-14T17:13:08.692Z,12.80
2019-04-14T17:15:41.572Z,12.70
2019-04-14T17:18:27.157Z,12.60
2019-04-14T17:21:11.957Z,12.40
2019-04-14T17:23:42.044Z,12.20
2019-04-14T17:26:12.137Z,11.90
2019-04-14T17:28:48.573Z,11.70
2019-04-14T17:31:24.893Z,11.40
2019-04-14T17:34:06.912Z,11.30
2019-04-14T17:36:53.593Z,11.10
2019-04-14T17:39:23.653Z,11.00
2019-04-14T17:42:03.348Z,10.80
2019-04-14T17:44:39.603Z,10.70
2019-04-14T17:47:27.657Z,10.60
2019-04-14T17:50:00.758Z,10.30
2019-04-14T17:52:37.109Z,9.90
2019-04-14T17:55:25.584Z,9.70
2019-04-14T17:58:01.416Z,9.50
2019-04-14T18:00:48.029Z,9.30
2019-04-14T18:03:20.929Z,9.20
2019-04-14T18:06:09.078Z,9.00
2019-04-14T18:08:54.015Z,8.90
2019-04-14T18:11:30.289Z,8.80
2019-04-14T18:14:00.382Z,8.80
2019-04-14T18:16:46.973Z,8.70
2019-04-14T18:19:20.030Z,8.60
2019-04-14T18:21:48.461Z,8.50
2019-04-14T18:24:16.904Z,8.50
2019-04-14T18:26:45.369Z,8.40
2019-04-14T18:29:31.920Z,8.40
2019-04-14T18:32:07.838Z,8.30
2019-04-14T18:34:50.000Z,8.30
2019-04-14T18:37:29.197Z,8.20
2019-04-14T18:40:05.423Z,8.20
2019-04-14T18:42:38.083Z,8.10
2019-04-14T18:45:15.468Z,8.10
2019-04-14T18:47:54.745Z,8.00
2019-04-14T18:50:43.045Z,7.90
2019-04-14T18:53:13.177Z,7.80
2019-04-14T18:55:45.938Z,7.80
2019-04-14T18:58:18.801Z,7.70
2019-04-14T19:00:51.841Z,7.60
2019-04-14T19:03:20.294Z,7.60
2019-04-14T19:05:48.757Z,7.60
2019-04-14T19:08:17.212Z,7.50
2019-04-14T19:10:47.308Z,7.40
2019-04-14T19:13:20.054Z,7.30
2019-04-14T19:15:50.143Z,7.20
2019-04-14T19:18:22.353Z,7.20
2019-04-14T19:20:52.439Z,7.10
2019-04-14T19:23:21.179Z,7.10
2019-04-14T19:25:49.604Z,7.10
2019-04-14T19:28:18.062Z,7.00
2019-04-14T19:30:46.522Z,6.90
2019-04-14T19:33:17.981Z,6.90
2019-04-14T19:35:46.420Z,6.80
2019-04-14T19:38:14.873Z,6.80
2019-04-14T19:40:43.311Z,6.80
2019-04-14T19:43:23.101Z,6.80
2019-04-14T19:45:41.905Z,6.70
2019-04-14T19:48:10.390Z,6.70
2019-04-14T19:50:38.831Z,6.70
2019-04-14T19:53:07.290Z,6.70
2019-04-14T19:55:37.217Z,6.60
2019-04-14T19:58:06.061Z,6.60
2019-04-14T20:00:34.488Z,6.60
2019-04-14T20:03:02.928Z,6.60
2019-04-14T20:05:31.381Z,6.60
2019-04-14T20:07:59.848Z,6.50
2019-04-14T20:10:28.298Z,6.50
2019-04-14T20:12:56.754Z,6.40
2019-04-14T20:15:26.820Z,6.30
2019-04-14T20:18:03.068Z,6.20
2019-04-14T20:20:48.129Z,6.10
2019-04-14T20:23:18.712Z,6.10
2019-04-14T20:26:03.984Z,5.90
2019-04-14T20:28:40.052Z,5.90
2019-04-14T20:31:19.355Z,5.70
2019-04-14T20:33:47.808Z,5.60
2019-04-14T20:36:16.285Z,5.50
2019-04-14T20:38:44.716Z,5.40
2019-04-14T20:41:13.180Z,5.30
2019-04-14T20:43:41.962Z,5.30
2019-04-14T20:46:10.402Z,5.20
2019-04-14T20:48:38.860Z,5.20
2019-04-14T20:51:07.311Z,5.20
2019-04-14T20:53:35.766Z,5.10
2019-04-14T20:56:04.190Z,5.10
2019-04-14T20:58:32.946Z,5.00
2019-04-14T21:01:01.385Z,5.00
2019-04-14T21:03:31.495Z,5.00
2019-04-14T21:06:07.093Z,5.00
2019-04-14T21:08:55.294Z,5.00
2019-04-14T21:11:25.664Z,4.90
2019-04-14T21:13:55.769Z,4.80
2019-04-14T21:16:28.528Z,4.80
2019-04-14T21:18:58.613Z,4.80
2019-04-14T21:21:40.581Z,4.70
2019-04-14T21:24:26.848Z,4.70
2019-04-14T21:26:59.886Z,4.70
2019-04-14T21:29:30.379Z,4.70
2019-04-14T21:32:06.352Z,4.70
2019-04-14T21:34:36.453Z,4.70
2019-04-14T21:37:15.196Z,4.60
2019-04-14T21:39:45.289Z,4.50
2019-04-14T21:42:14.398Z,4.50
2019-04-14T21:44:42.904Z,4.40
2019-04-14T21:47:11.354Z,4.40
2019-04-14T21:49:39.799Z,4.40
2019-04-14T21:52:09.876Z,4.40
2019-04-14T21:54:40.281Z,4.30
2019-04-14T21:57:10.351Z,4.30
2019-04-14T21:59:58.665Z,4.20
2019-04-14T22:02:45.140Z,4.10
2019-04-14T22:05:30.428Z,4.10
2019-04-14T22:08:16.922Z,3.90
2019-04-14T22:11:05.088Z,3.70
2019-04-14T22:13:33.549Z,3.60
2019-04-14T22:16:02.077Z,3.50
2019-04-14T22:18:30.508Z,3.40
2019-04-14T22:20:59.049Z,3.40
2019-04-14T22:23:27.513Z,3.30
2019-04-14T22:25:56.022Z,3.20
2019-04-14T22:28:24.482Z,3.00
2019-04-14T22:30:53.015Z,2.80
2019-04-14T22:33:21.469Z,2.70
2019-04-14T22:35:49.910Z,2.70
2019-04-14T22:38:18.383Z,2.70
2019-04-14T22:40:47.210Z,2.70
2019-04-14T22:43:15.714Z,2.70
2019-04-14T22:45:44.250Z,2.70
2019-04-14T22:48:12.690Z,2.60
2019-04-14T22:50:41.142Z,2.60
2019-04-14T22:53:09.596Z,2.50
2019-04-14T22:55:38.059Z,2.40
2019-04-14T22:58:06.630Z,2.40
2019-04-14T23:00:42.576Z,2.40
2019-04-14T23:03:30.882Z,2.30
2019-04-14T23:06:07.129Z,2.20
2019-04-14T23:08:43.013Z,2.10
2019-04-14T23:11:18.732Z,2.10
2019-04-14T23:14:05.152Z,2.00
2019-04-14T23:16:38.262Z,1.90
2019-04-14T23:19:14.142Z,1.90
2019-04-14T23:21:44.211Z,1.90
2019-04-14T23:24:22.912Z,1.90
2019-04-14T23:26:52.922Z,1.90
2019-04-14T23:29:21.529Z,1.80
2019-04-14T23:31:50.072Z,1.70
2019-04-14T23:34:18.880Z,1.60
2019-04-14T23:36:47.335Z,1.50
2019-04-14T23:39:15.760Z,1.40
2019-04-14T23:41:44.212Z,1.30
2019-04-14T23:44:12.672Z,1.30
2019-04-14T23:46:41.114Z,1.30
2019-04-14T23:49:09.590Z,1.30
2019-04-14T23:51:38.039Z,1.30
2019-04-14T23:54:06.498Z,1.30
2019-04-14T23:56:35.046Z,1.20
2019-04-14T23:59:03.969Z,1.20
